Time;durP1;ratioP1;P1;durP2;ratioP2;P2;SDS_P1;SDS_P2;PMS_P1;PMS_P2;Temp;Humidity;BMP_temperature;BMP_pressure;BME280_temperature;BME280_humidity;BME280_pressure;Samples;Min_cycle;Max_cycle;Signal;HPM_P1;HPM_P2
2021/09/22 00:01:08;;;;;;;3.38;2.72;;;;;;;;;;5012079;28;20471;-72
2021/09/22 00:03:33;;;;;;;3.22;2.00;;;;;;;;;;5012469;28;20113;-71
2021/09/22 00:05:58;;;;;;;4.97;3.17;;;;;;;;;;4993915;28;20396;-71
2021/09/22 00:08:23;;;;;;;4.93;3.42;;;;;;;;;;5011548;28;20061;-71
2021/09/22 00:10:48;;;;;;;2.92;2.35;;;;;;;;;;4994080;28;20032;-71
2021/09/22 00:13:14;;;;;;;3.92;2.50;;;;;;;;;;4993614;28;20064;-71
2021/09/22 00:15:39;;;;;;;5.90;3.33;;;;;;;;;;5011218;28;20021;-71
2021/09/22 00:18:04;;;;;;;5.63;3.95;;;;;;;;;;4977414;28;20507;-71
2021/09/22 00:20:29;;;;;;;4.63;3.55;;;;;;;;;;5011985;28;20072;-71
2021/09/22 00:22:56;;;;;;;4.47;3.72;;;;;;;;;;4991447;28;20030;-71
2021/09/22 00:25:22;;;;;;;7.35;3.88;;;;;;;;;;5011045;28;20434;-71
2021/09/22 00:27:47;;;;;;;4.15;3.42;;;;;;;;;;5011396;28;20021;-71
2021/09/22 00:30:13;;;;;;;4.00;3.53;;;;;;;;;;5011746;28;20490;-71
2021/09/22 00:32:38;;;;;;;4.22;3.53;;;;;;;;;;5011559;28;20021;-72
2021/09/22 00:35:04;;;;;;;5.55;4.00;;;;;;;;;;5007398;28;20437;-71
2021/09/22 00:37:29;;;;;;;6.47;3.50;;;;;;;;;;4998185;28;20034;-71
2021/09/22 00:39:54;;;;;;;4.47;3.13;;;;;;;;;;4993308;28;20068;-71
2021/09/22 00:42:20;;;;;;;6.78;3.90;;;;;;;;;;5011168;28;20096;-71
2021/09/22 00:44:49;;;;;;;4.32;3.28;;;;;;;;;;5011436;28;20062;-72
2021/09/22 00:47:14;;;;;;;6.20;4.47;;;;;;;;;;5003780;28;20360;-71
2021/09/22 00:49:40;;;;;;;4.40;3.17;;;;;;;;;;5011548;28;20049;-72
2021/09/22 00:52:05;;;;;;;6.50;3.42;;;;;;;;;;5011030;28;20383;-72
2021/09/22 00:54:30;;;;;;;5.65;4.70;;;;;;;;;;5009859;28;20245;-72
2021/09/22 00:56:55;;;;;;;4.72;2.80;;;;;;;;;;5010935;28;20022;-72
2021/09/22 00:59:21;;;;;;;4.68;3.55;;;;;;;;;;4993661;28;20083;-72
2021/09/22 01:01:49;;;;;;;6.13;4.68;;;;;;;;;;5011561;28;20022;-72
2021/09/22 01:04:15;;;;;;;5.88;3.38;;;;;;;;;;5012808;28;20022;-72
2021/09/22 01:06:40;;;;;;;5.13;3.83;;;;;;;;;;4997024;28;20076;-72
2021/09/22 01:09:05;;;;;;;5.50;4.07;;;;;;;;;;5014469;28;20021;-72
2021/09/22 01:11:33;;;;;;;3.78;2.83;;;;;;;;;;5014061;28;20213;-72
2021/09/22 01:13:59;;;;;;;5.10;4.30;;;;;;;;;;5014483;28;20026;-72
2021/09/22 01:16:24;;;;;;;7.88;5.35;;;;;;;;;;4996676;28;20022;-72
2021/09/22 01:18:49;;;;;;;5.05;4.10;;;;;;;;;;5014500;28;20026;-72
2021/09/22 01:21:17;;;;;;;3.47;2.90;;;;;;;;;;4996672;28;20133;-72
2021/09/22 01:23:42;;;;;;;5.32;3.97;;;;;;;;;;4991822;28;20730;-72
2021/09/22 01:26:08;;;;;;;7.32;3.55;;;;;;;;;;4995219;28;20027;-72
2021/09/22 01:28:33;;;;;;;4.35;3.80;;;;;;;;;;4990562;28;20487;-72
2021/09/22 01:30:59;;;;;;;5.10;3.53;;;;;;;;;;5014417;28;20034;-72
2021/09/22 01:33:25;;;;;;;6.03;4.32;;;;;;;;;;4996471;28;20030;-73
2021/09/22 01:35:50;;;;;;;3.72;3.28;;;;;;;;;;5014624;28;20025;-73
2021/09/22 01:38:18;;;;;;;5.57;3.75;;;;;;;;;;4996430;28;20165;-72
2021/09/22 01:40:57;;;;;;;6.05;3.55;;;;;;;;;;4995661;28;20014;-72
2021/09/22 01:43:22;;;;;;;4.18;2.75;;;;;;;;;;5013989;28;20049;-72
2021/09/22 01:45:47;;;;;;;3.63;1.52;;;;;;;;;;4996363;28;20080;-73
2021/09/22 01:48:12;;;;;;;6.90;3.80;;;;;;;;;;5014285;28;20109;-72
2021/09/22 01:50:38;;;;;;;3.17;2.67;;;;;;;;;;4996296;28;20029;-73
2021/09/22 01:53:03;;;;;;;2.85;1.85;;;;;;;;;;5011213;28;20062;-72
2021/09/22 01:55:28;;;;;;;6.53;5.10;;;;;;;;;;5013902;28;20487;-72
2021/09/22 01:57:53;;;;;;;6.15;4.15;;;;;;;;;;4995955;28;20088;-73
2021/09/22 02:00:19;;;;;;;5.30;4.35;;;;;;;;;;4996384;28;20017;-72
2021/09/22 02:02:44;;;;;;;4.93;3.42;;;;;;;;;;4995577;28;20030;-73
2021/09/22 02:05:09;;;;;;;4.50;4.07;;;;;;;;;;5008694;28;20014;-72
2021/09/22 02:07:35;;;;;;;6.03;4.25;;;;;;;;;;4993107;28;20056;-71
2021/09/22 02:10:01;;;;;;;3.45;2.60;;;;;;;;;;5013575;28;20026;-71
2021/09/22 02:12:27;;;;;;;5.78;4.13;;;;;;;;;;5013344;28;20032;-72
2021/09/22 02:14:52;;;;;;;3.58;3.15;;;;;;;;;;5014999;28;20022;-72
2021/09/22 02:17:17;;;;;;;5.28;3.70;;;;;;;;;;4995396;28;20055;-72
2021/09/22 02:19:42;;;;;;;5.32;4.10;;;;;;;;;;5013911;28;20038;-72
2021/09/22 02:22:07;;;;;;;4.82;3.35;;;;;;;;;;4995487;28;20379;-72
2021/09/22 02:24:33;;;;;;;4.53;2.85;;;;;;;;;;4983338;28;20034;-72
2021/09/22 02:26:58;;;;;;;3.75;2.72;;;;;;;;;;5013411;28;20380;-72
2021/09/22 02:29:25;;;;;;;3.65;3.05;;;;;;;;;;5013794;28;20037;-72
2021/09/22 02:31:50;;;;;;;5.50;4.60;;;;;;;;;;4995519;28;20030;-72
2021/09/22 02:34:15;;;;;;;4.57;2.33;;;;;;;;;;4995204;28;20033;-72
2021/09/22 02:36:41;;;;;;;7.25;4.63;;;;;;;;;;4995880;28;20022;-72
2021/09/22 02:39:06;;;;;;;5.00;2.95;;;;;;;;;;5013028;28;20450;-72
2021/09/22 02:41:32;;;;;;;5.30;3.90;;;;;;;;;;4995542;28;20018;-72
2021/09/22 02:43:57;;;;;;;5.82;3.97;;;;;;;;;;4995427;28;20092;-72
2021/09/22 02:46:23;;;;;;;7.30;3.40;;;;;;;;;;5012877;28;20296;-73
2021/09/22 02:48:48;;;;;;;4.55;3.10;;;;;;;;;;5013230;28;20057;-73
2021/09/22 02:51:13;;;;;;;4.85;2.95;;;;;;;;;;5012800;28;20041;-71
2021/09/22 02:53:38;;;;;;;4.68;3.88;;;;;;;;;;5009791;28;20046;-73
2021/09/22 02:56:04;;;;;;;7.32;4.68;;;;;;;;;;4995033;28;20018;-73
2021/09/22 02:58:29;;;;;;;7.15;3.60;;;;;;;;;;4995243;28;20022;-72
2021/09/22 03:00:56;;;;;;;5.90;4.80;;;;;;;;;;5012926;28;20038;-73
2021/09/22 03:03:22;;;;;;;5.63;4.32;;;;;;;;;;4995525;28;20037;-73
2021/09/22 03:05:47;;;;;;;5.00;4.13;;;;;;;;;;4994580;28;20030;-72
2021/09/22 03:08:12;;;;;;;5.38;4.40;;;;;;;;;;4995079;28;20400;-73
2021/09/22 03:10:37;;;;;;;6.75;4.45;;;;;;;;;;5012665;28;20392;-73
2021/09/22 03:13:02;;;;;;;7.93;4.55;;;;;;;;;;5012365;28;20034;-72
2021/09/22 03:15:28;;;;;;;5.40;4.22;;;;;;;;;;4994625;28;20030;-72
2021/09/22 03:17:53;;;;;;;7.45;4.00;;;;;;;;;;4994768;28;20369;-74
2021/09/22 03:20:18;;;;;;;3.55;3.03;;;;;;;;;;4994749;28;20030;-73
2021/09/22 03:22:44;;;;;;;10.10;5.43;;;;;;;;;;5010611;28;20029;-73
2021/09/22 03:25:09;;;;;;;5.82;4.82;;;;;;;;;;5004806;28;20067;-72
2021/09/22 03:27:34;;;;;;;6.45;4.28;;;;;;;;;;5011910;28;20498;-72
2021/09/22 03:30:00;;;;;;;10.27;5.13;;;;;;;;;;5012701;28;20034;-72
2021/09/22 03:32:25;;;;;;;5.93;4.85;;;;;;;;;;4994611;28;20034;-73
2021/09/22 03:34:50;;;;;;;8.60;4.45;;;;;;;;;;4994263;28;20022;-73
2021/09/22 03:37:15;;;;;;;5.68;3.22;;;;;;;;;;4994096;28;20383;-73
2021/09/22 03:39:41;;;;;;;7.00;4.90;;;;;;;;;;4978399;28;20430;-73
2021/09/22 03:42:06;;;;;;;9.05;4.63;;;;;;;;;;5012464;28;20025;-73
2021/09/22 03:44:31;;;;;;;5.72;4.40;;;;;;;;;;4993840;28;20032;-73
2021/09/22 03:46:56;;;;;;;7.15;4.90;;;;;;;;;;4993912;28;20040;-72
2021/09/22 03:49:22;;;;;;;8.05;4.70;;;;;;;;;;5012205;28;20476;-73
2021/09/22 03:51:47;;;;;;;9.73;3.58;;;;;;;;;;4994002;28;20022;-72
2021/09/22 03:54:12;;;;;;;7.05;4.78;;;;;;;;;;4989107;28;20046;-73
2021/09/22 03:56:37;;;;;;;6.93;4.70;;;;;;;;;;4990857;28;20026;-72
2021/09/22 03:59:02;;;;;;;8.52;5.05;;;;;;;;;;4992932;28;20877;-72
2021/09/22 04:01:28;;;;;;;10.00;4.88;;;;;;;;;;4992406;28;20054;-72
2021/09/22 04:03:53;;;;;;;7.63;4.13;;;;;;;;;;4992373;28;20026;-73
2021/09/22 04:06:18;;;;;;;10.00;4.38;;;;;;;;;;4970557;28;20088;-73
2021/09/22 04:08:44;;;;;;;6.85;3.65;;;;;;;;;;4991281;28;20496;-73
2021/09/22 04:11:09;;;;;;;10.50;4.82;;;;;;;;;;4990941;28;20392;-73
2021/09/22 04:13:34;;;;;;;7.60;4.97;;;;;;;;;;4990830;28;20469;-73
2021/09/22 04:15:59;;;;;;;8.95;3.50;;;;;;;;;;4992060;28;20082;-73
2021/09/22 04:18:24;;;;;;;6.05;3.83;;;;;;;;;;4991645;28;20029;-74
2021/09/22 04:20:49;;;;;;;7.97;4.13;;;;;;;;;;4991767;28;20498;-73
2021/09/22 04:23:15;;;;;;;10.43;4.60;;;;;;;;;;4989801;28;20105;-73
2021/09/22 04:25:40;;;;;;;8.63;3.55;;;;;;;;;;4991263;28;20376;-74
2021/09/22 04:28:06;;;;;;;9.75;5.57;;;;;;;;;;4991557;28;20433;-73
2021/09/22 04:30:31;;;;;;;10.27;5.30;;;;;;;;;;4991524;28;20034;-73
2021/09/22 04:32:56;;;;;;;8.85;5.43;;;;;;;;;;4990532;28;20031;-73
2021/09/22 04:35:22;;;;;;;8.05;4.60;;;;;;;;;;4987931;28;20033;-73
2021/09/22 04:37:47;;;;;;;7.80;5.18;;;;;;;;;;4990780;28;20023;-73
2021/09/22 04:40:13;;;;;;;8.73;5.78;;;;;;;;;;4994181;28;20019;-73
2021/09/22 04:42:38;;;;;;;9.43;5.10;;;;;;;;;;4986852;28;20022;-71
2021/09/22 04:45:04;;;;;;;8.98;4.75;;;;;;;;;;4995535;28;20452;-72
2021/09/22 04:47:30;;;;;;;9.52;5.40;;;;;;;;;;4995353;28;20555;-72
2021/09/22 04:49:56;;;;;;;9.70;4.55;;;;;;;;;;4994912;28;20121;-72
2021/09/22 04:52:21;;;;;;;10.40;5.57;;;;;;;;;;4986617;28;20054;-72
2021/09/22 04:54:47;;;;;;;10.45;5.82;;;;;;;;;;5011567;28;20431;-72
2021/09/22 04:57:12;;;;;;;10.80;5.55;;;;;;;;;;5014600;28;20095;-71
2021/09/22 04:59:37;;;;;;;6.07;4.70;;;;;;;;;;4997416;28;20037;-74
2021/09/22 05:02:02;;;;;;;10.40;5.25;;;;;;;;;;4996984;28;20237;-74
2021/09/22 05:04:28;;;;;;;9.98;5.35;;;;;;;;;;5014559;28;20026;-74
2021/09/22 05:06:53;;;;;;;9.32;3.67;;;;;;;;;;4996352;28;20487;-72
2021/09/22 05:09:18;;;;;;;9.85;4.43;;;;;;;;;;5014721;28;20033;-77
2021/09/22 05:11:43;;;;;;;8.65;5.18;;;;;;;;;;5013924;28;20029;-73
2021/09/22 05:14:09;;;;;;;12.40;5.85;;;;;;;;;;4997475;28;20026;-73
2021/09/22 05:16:34;;;;;;;9.90;5.65;;;;;;;;;;4996628;28;20037;-72
2021/09/22 05:18:59;;;;;;;12.32;6.10;;;;;;;;;;4980679;28;20025;-73
2021/09/22 05:21:24;;;;;;;11.05;5.88;;;;;;;;;;5011668;28;20026;-73
2021/09/22 05:23:49;;;;;;;10.68;5.93;;;;;;;;;;5006595;28;20041;-73
2021/09/22 05:26:15;;;;;;;10.40;5.57;;;;;;;;;;5014166;28;20064;-72
2021/09/22 05:28:40;;;;;;;10.77;5.30;;;;;;;;;;5014186;28;20375;-72
2021/09/22 05:31:05;;;;;;;8.85;5.65;;;;;;;;;;4995997;28;20151;-71
2021/09/22 05:33:30;;;;;;;11.25;5.78;;;;;;;;;;4988443;28;20033;-70
2021/09/22 05:35:55;;;;;;;15.38;6.40;;;;;;;;;;5013903;28;20014;-71
2021/09/22 05:38:21;;;;;;;10.80;4.53;;;;;;;;;;5014083;28;20506;-72
2021/09/22 05:40:46;;;;;;;10.18;5.93;;;;;;;;;;4994350;28;20121;-71
2021/09/22 05:43:11;;;;;;;11.95;5.32;;;;;;;;;;4995344;28;20029;-72
2021/09/22 05:45:36;;;;;;;12.13;6.40;;;;;;;;;;5012741;28;20091;-72
2021/09/22 05:48:02;;;;;;;11.52;5.55;;;;;;;;;;4979831;28;20037;-73
2021/09/22 05:50:27;;;;;;;12.35;5.82;;;;;;;;;;5011474;28;20496;-72
2021/09/22 05:52:52;;;;;;;14.50;5.95;;;;;;;;;;4992694;28;20486;-73
2021/09/22 05:55:18;;;;;;;11.18;5.75;;;;;;;;;;4995248;28;20030;-73
2021/09/22 05:57:43;;;;;;;10.18;5.88;;;;;;;;;;4996397;28;20384;-73
2021/09/22 06:00:08;;;;;;;14.68;7.10;;;;;;;;;;5013488;28;20084;-73
2021/09/22 06:02:34;;;;;;;13.60;5.68;;;;;;;;;;4994968;28;20399;-74
2021/09/22 06:04:59;;;;;;;14.35;5.97;;;;;;;;;;5011022;28;20030;-73
2021/09/22 06:07:24;;;;;;;14.00;6.85;;;;;;;;;;5013592;28;20042;-73
2021/09/22 06:09:51;;;;;;;13.02;5.68;;;;;;;;;;5012715;28;20040;-74
2021/09/22 06:12:16;;;;;;;12.32;4.53;;;;;;;;;;5002727;28;20321;-74
2021/09/22 06:14:41;;;;;;;16.15;6.90;;;;;;;;;;4984946;28;20102;-74
2021/09/22 06:17:06;;;;;;;16.95;6.57;;;;;;;;;;4976676;28;20116;-74
2021/09/22 06:19:31;;;;;;;14.48;6.25;;;;;;;;;;4990508;28;20495;-74
2021/09/22 06:21:57;;;;;;;16.63;8.15;;;;;;;;;;4994058;28;20433;-74
2021/09/22 06:24:22;;;;;;;9.95;5.63;;;;;;;;;;5005025;28;20416;-74
2021/09/22 06:26:47;;;;;;;8.40;3.38;;;;;;;;;;5013221;28;20436;-73
2021/09/22 06:29:13;;;;;;;13.35;5.65;;;;;;;;;;4995401;28;20068;-74
2021/09/22 06:31:38;;;;;;;17.60;6.20;;;;;;;;;;5009267;28;20028;-73
2021/09/22 06:34:04;;;;;;;14.15;4.30;;;;;;;;;;5013563;28;20060;-73
2021/09/22 06:36:29;;;;;;;13.77;5.38;;;;;;;;;;4997487;28;20053;-73
2021/09/22 06:38:54;;;;;;;11.35;6.05;;;;;;;;;;5012758;28;20022;-72
2021/09/22 06:41:19;;;;;;;10.93;4.22;;;;;;;;;;5012307;28;20022;-72
2021/09/22 06:43:45;;;;;;;13.68;5.20;;;;;;;;;;4995106;28;20041;-73
2021/09/22 06:46:10;;;;;;;12.80;5.40;;;;;;;;;;5012896;28;20109;-72
2021/09/22 06:48:35;;;;;;;15.15;7.63;;;;;;;;;;4995555;28;20132;-73
2021/09/22 06:51:00;;;;;;;14.75;7.65;;;;;;;;;;4987828;28;20408;-73
2021/09/22 06:53:26;;;;;;;19.95;7.38;;;;;;;;;;4992355;28;20069;-72
2021/09/22 06:55:51;;;;;;;21.73;7.82;;;;;;;;;;4994484;28;20483;-72
2021/09/22 06:58:16;;;;;;;11.93;6.22;;;;;;;;;;5003176;28;20494;-72
2021/09/22 07:00:41;;;;;;;16.73;7.05;;;;;;;;;;5012324;28;20385;-72
2021/09/22 07:03:11;;;;;;;13.52;4.78;;;;;;;;;;5011271;28;20037;-72
2021/09/22 07:05:37;;;;;;;18.23;6.85;;;;;;;;;;5011755;28;20021;-72
2021/09/22 07:08:02;;;;;;;12.00;6.65;;;;;;;;;;5012976;28;20105;-72
2021/09/22 07:10:31;;;;;;;11.38;5.43;;;;;;;;;;4994165;28;20483;-73
2021/09/22 07:12:56;;;;;;;15.68;6.68;;;;;;;;;;4994185;28;20053;-72
2021/09/22 07:15:22;;;;;;;16.40;7.03;;;;;;;;;;4994349;28;20014;-72
2021/09/22 07:17:47;;;;;;;16.63;7.20;;;;;;;;;;5010102;28;20048;-72
2021/09/22 07:20:12;;;;;;;17.30;6.80;;;;;;;;;;5017980;28;20033;-72
2021/09/22 07:22:37;;;;;;;18.55;5.47;;;;;;;;;;4989484;28;20021;-72
2021/09/22 07:25:03;;;;;;;9.70;4.63;;;;;;;;;;4993669;28;20026;-73
2021/09/22 07:27:28;;;;;;;13.05;4.68;;;;;;;;;;4996251;28;20030;-72
2021/09/22 07:29:55;;;;;;;13.32;5.82;;;;;;;;;;5014993;28;20107;-73
2021/09/22 07:32:21;;;;;;;17.23;6.80;;;;;;;;;;4998285;28;20025;-73
2021/09/22 07:34:46;;;;;;;15.00;5.40;;;;;;;;;;5010131;28;20028;-72
2021/09/22 07:37:12;;;;;;;13.43;5.80;;;;;;;;;;4998751;28;20387;-72
2021/09/22 07:39:38;;;;;;;13.25;6.35;;;;;;;;;;5014462;28;20468;-73
2021/09/22 07:42:03;;;;;;;15.15;7.15;;;;;;;;;;5007221;28;20030;-73
2021/09/22 07:44:29;;;;;;;11.02;6.38;;;;;;;;;;5012914;28;20677;-73
2021/09/22 07:46:54;;;;;;;14.65;5.97;;;;;;;;;;4998679;28;20183;-73
2021/09/22 07:49:19;;;;;;;15.63;5.10;;;;;;;;;;4983783;28;20919;-72
2021/09/22 07:51:44;;;;;;;16.48;5.38;;;;;;;;;;5015611;28;20098;-73
2021/09/22 07:54:10;;;;;;;12.35;3.58;;;;;;;;;;4991856;28;20046;-73
2021/09/22 07:56:35;;;;;;;9.55;4.13;;;;;;;;;;4991185;28;20045;-73
2021/09/22 07:59:00;;;;;;;15.30;4.82;;;;;;;;;;4992815;28;20038;-73
2021/09/22 08:01:25;;;;;;;16.65;4.68;;;;;;;;;;4984545;28;20034;-73
2021/09/22 08:03:50;;;;;;;13.25;3.90;;;;;;;;;;4996320;28;20120;-72
2021/09/22 08:06:16;;;;;;;14.98;4.20;;;;;;;;;;5027223;28;20073;-72
2021/09/22 08:08:41;;;;;;;9.95;3.40;;;;;;;;;;5008279;28;20033;-72
2021/09/22 08:11:06;;;;;;;15.88;3.80;;;;;;;;;;5005542;28;20033;-72
2021/09/22 08:13:31;;;;;;;9.68;2.58;;;;;;;;;;5010373;28;20048;-73
2021/09/22 08:15:56;;;;;;;11.77;2.97;;;;;;;;;;5032789;28;20026;-72
2021/09/22 08:18:22;;;;;;;9.95;2.65;;;;;;;;;;5025939;28;20014;-71
2021/09/22 08:20:47;;;;;;;11.32;3.10;;;;;;;;;;4996892;28;20717;-72
2021/09/22 08:23:12;;;;;;;12.13;3.13;;;;;;;;;;5017805;28;20032;-71
2021/09/22 08:25:38;;;;;;;10.02;2.85;;;;;;;;;;5028394;28;20033;-72
2021/09/22 08:28:03;;;;;;;15.52;3.60;;;;;;;;;;5020614;28;20037;-72
2021/09/22 08:30:28;;;;;;;9.98;3.40;;;;;;;;;;4991543;28;20040;-71
2021/09/22 08:32:53;;;;;;;10.55;2.95;;;;;;;;;;5000421;28;20506;-71
2021/09/22 08:35:19;;;;;;;15.05;3.65;;;;;;;;;;5018976;28;20036;-71
2021/09/22 08:37:44;;;;;;;13.43;3.08;;;;;;;;;;5000485;28;20376;-71
2021/09/22 08:40:10;;;;;;;14.27;3.08;;;;;;;;;;5023497;28;20464;-71
2021/09/22 08:42:35;;;;;;;12.95;3.45;;;;;;;;;;4984310;28;20030;-71
2021/09/22 08:45:01;;;;;;;14.55;2.90;;;;;;;;;;5019251;28;20025;-71
2021/09/22 08:47:26;;;;;;;13.38;2.95;;;;;;;;;;5019112;28;20021;-71
2021/09/22 08:49:52;;;;;;;18.25;2.65;;;;;;;;;;5019852;28;20021;-72
2021/09/22 08:52:17;;;;;;;6.45;2.03;;;;;;;;;;4991256;28;20360;-71
2021/09/22 08:54:42;;;;;;;11.45;1.95;;;;;;;;;;5002090;28;20029;-71
2021/09/22 08:57:08;;;;;;;9.00;2.58;;;;;;;;;;5015504;28;20029;-73
2021/09/22 08:59:33;;;;;;;12.10;2.60;;;;;;;;;;5004618;28;20018;-72
2021/09/22 09:02:04;;;;;;;12.68;2.75;;;;;;;;;;4981725;28;20041;-72
2021/09/22 09:04:29;;;;;;;14.32;4.18;;;;;;;;;;5018628;28;20022;-71
2021/09/22 09:06:55;;;;;;;14.45;4.30;;;;;;;;;;5016116;28;20100;-71
2021/09/22 09:09:20;;;;;;;14.70;4.50;;;;;;;;;;5000265;28;20041;-72
2021/09/22 09:11:45;;;;;;;14.43;4.07;;;;;;;;;;4997780;28;20037;-72
2021/09/22 09:14:13;;;;;;;6.25;3.42;;;;;;;;;;4994957;28;20025;-72
2021/09/22 09:16:39;;;;;;;11.52;3.45;;;;;;;;;;5001292;28;20069;-72
2021/09/22 09:19:12;;;;;;;15.00;4.07;;;;;;;;;;4995049;28;20105;-72
2021/09/22 09:22:00;;;;;;;13.15;3.17;;;;;;;;;;5001483;28;20486;-72
2021/09/22 09:24:28;;;;;;;11.90;3.72;;;;;;;;;;5013687;28;20804;-72
2021/09/22 09:26:53;;;;;;;10.13;3.40;;;;;;;;;;5006188;28;20050;-74
2021/09/22 09:29:18;;;;;;;13.43;3.65;;;;;;;;;;4997884;28;20129;-73
2021/09/22 09:31:44;;;;;;;6.55;2.58;;;;;;;;;;4985303;28;20017;-75
2021/09/22 09:34:09;;;;;;;10.25;3.33;;;;;;;;;;5014434;28;20427;-74
2021/09/22 09:36:35;;;;;;;11.00;3.80;;;;;;;;;;5003338;28;20033;-76
2021/09/22 09:39:03;;;;;;;15.80;3.25;;;;;;;;;;4993980;28;20357;-75
2021/09/22 09:41:28;;;;;;;9.68;3.28;;;;;;;;;;5014529;28;20065;-73
2021/09/22 09:43:53;;;;;;;9.93;2.35;;;;;;;;;;5025690;28;20030;-71
2021/09/22 09:46:22;;;;;;;11.63;2.85;;;;;;;;;;5015789;28;20174;-72
2021/09/22 09:48:58;;;;;;;10.05;3.00;;;;;;;;;;5017029;28;20040;-72
2021/09/22 09:51:38;;;;;;;12.57;2.67;;;;;;;;;;4994633;28;20048;-72
2021/09/22 09:54:04;;;;;;;11.90;3.00;;;;;;;;;;5015987;28;20365;-71
2021/09/22 09:56:29;;;;;;;9.45;1.75;;;;;;;;;;5013088;28;20033;-72
2021/09/22 09:58:57;;;;;;;9.68;2.35;;;;;;;;;;4974911;28;20036;-71
2021/09/22 10:01:34;;;;;;;12.48;3.03;;;;;;;;;;5010394;28;20022;-71
2021/09/22 10:03:59;;;;;;;11.23;2.58;;;;;;;;;;5011957;28;20467;-71
2021/09/22 10:06:24;;;;;;;12.48;3.10;;;;;;;;;;5012734;28;20108;-70
2021/09/22 10:08:49;;;;;;;8.15;1.88;;;;;;;;;;4994794;28;20030;-72
2021/09/22 10:11:14;;;;;;;8.00;1.37;;;;;;;;;;4994418;28;20033;-72
2021/09/22 10:13:40;;;;;;;9.20;1.70;;;;;;;;;;5011773;28;20319;-71
2021/09/22 10:16:06;;;;;;;6.95;1.40;;;;;;;;;;4994289;28;20030;-71
2021/09/22 10:18:31;;;;;;;13.02;2.30;;;;;;;;;;5002278;28;20064;-72
2021/09/22 10:20:57;;;;;;;9.82;1.83;;;;;;;;;;4993771;28;20014;-71
2021/09/22 10:23:23;;;;;;;9.18;1.13;;;;;;;;;;4993474;28;20029;-72
2021/09/22 10:25:48;;;;;;;7.75;1.27;;;;;;;;;;4994395;28;20030;-73
2021/09/22 10:28:13;;;;;;;9.45;1.30;;;;;;;;;;5012533;28;20033;-72
2021/09/22 10:30:40;;;;;;;5.75;1.50;;;;;;;;;;4983278;28;20081;-72
2021/09/22 10:33:07;;;;;;;7.38;1.20;;;;;;;;;;4993702;28;20026;-72
2021/09/22 10:35:39;;;;;;;7.90;1.73;;;;;;;;;;4994853;28;20052;-73
2021/09/22 10:38:19;;;;;;;8.75;1.65;;;;;;;;;;5011129;28;20057;-72
2021/09/22 10:40:47;;;;;;;9.52;1.40;;;;;;;;;;4993755;28;20053;-72
2021/09/22 10:43:15;;;;;;;5.43;1.05;;;;;;;;;;4994788;28;20037;-72
2021/09/22 10:45:41;;;;;;;7.00;1.42;;;;;;;;;;5016049;28;20049;-72
2021/09/22 10:48:20;;;;;;;6.97;1.38;;;;;;;;;;5012136;28;20026;-72
2021/09/22 10:50:50;;;;;;;8.55;1.65;;;;;;;;;;4994059;28;20022;-72
2021/09/22 10:53:35;;;;;;;7.00;1.40;;;;;;;;;;5009629;28;20506;-72
2021/09/22 10:56:06;;;;;;;10.23;2.08;;;;;;;;;;4973657;28;20046;-72
2021/09/22 10:58:32;;;;;;;9.52;1.58;;;;;;;;;;4974532;28;20022;-72
2021/09/22 11:00:57;;;;;;;7.75;1.25;;;;;;;;;;4988377;28;20019;-73
2021/09/22 11:03:41;;;;;;;4.57;0.95;;;;;;;;;;4989716;28;20034;-73
2021/09/22 11:06:27;;;;;;;6.57;1.05;;;;;;;;;;4988046;28;20117;-72
2021/09/22 11:09:02;;;;;;;6.88;1.55;;;;;;;;;;4982956;28;20049;-73
2021/09/22 11:11:27;;;;;;;;;;;;;;;;;;4991969;28;20098;-73
2021/09/22 11:13:52;;;;;;;8.60;1.35;;;;;;;;;;4992227;28;19967;-73
2021/09/22 11:16:20;;;;;;;7.63;1.53;;;;;;;;;;4990330;28;20468;-72
2021/09/22 11:18:46;;;;;;;7.53;1.50;;;;;;;;;;4972459;28;20266;-73
2021/09/22 11:21:11;;;;;;;4.80;1.23;;;;;;;;;;4981438;28;20015;-74
2021/09/22 11:23:37;;;;;;;10.00;1.40;;;;;;;;;;4969008;28;20248;-74
2021/09/22 11:26:07;;;;;;;6.68;1.00;;;;;;;;;;4972457;28;20018;-74
2021/09/22 11:28:32;;;;;;;6.28;0.65;;;;;;;;;;4991419;28;20030;-74
2021/09/22 11:30:57;;;;;;;9.77;1.60;;;;;;;;;;4974905;28;20034;-73
2021/09/22 11:33:23;;;;;;;7.35;0.90;;;;;;;;;;4973314;28;20035;-73
2021/09/22 11:35:49;;;;;;;9.07;1.23;;;;;;;;;;4973730;28;20045;-73
2021/09/22 11:38:14;;;;;;;7.43;1.15;;;;;;;;;;4974140;28;20022;-73
2021/09/22 11:40:40;;;;;;;7.90;1.50;;;;;;;;;;4972055;28;20037;-73
2021/09/22 11:43:23;;;;;;;9.23;1.25;;;;;;;;;;4981328;28;20529;-74
2021/09/22 11:45:51;;;;;;;7.95;1.30;;;;;;;;;;4973421;28;20361;-73
2021/09/22 11:48:23;;;;;;;5.35;0.85;;;;;;;;;;4973805;28;20109;-73
2021/09/22 11:50:48;;;;;;;8.07;1.38;;;;;;;;;;4973797;28;20018;-73
2021/09/22 11:53:14;;;;;;;6.03;1.27;;;;;;;;;;4970076;28;20033;-74
2021/09/22 11:55:40;;;;;;;7.18;1.55;;;;;;;;;;4991823;28;20281;-74
2021/09/22 11:58:07;;;;;;;8.48;1.50;;;;;;;;;;5010404;28;20364;-73
2021/09/22 12:00:32;;;;;;;6.25;1.00;;;;;;;;;;4993341;28;20022;-73
2021/09/22 12:02:57;;;;;;;5.93;1.15;;;;;;;;;;5009103;28;20029;-73
2021/09/22 12:05:22;;;;;;;6.20;1.20;;;;;;;;;;5007785;28;20045;-73
2021/09/22 12:07:52;;;;;;;7.07;1.15;;;;;;;;;;5002335;28;20049;-73
2021/09/22 12:10:17;;;;;;;5.25;0.93;;;;;;;;;;5005322;28;20045;-74
2021/09/22 12:12:42;;;;;;;6.38;1.10;;;;;;;;;;5010713;28;20022;-73
2021/09/22 12:15:08;;;;;;;5.80;1.57;;;;;;;;;;4974362;28;20027;-74
2021/09/22 12:17:38;;;;;;;5.68;1.40;;;;;;;;;;5002770;28;20284;-75
2021/09/22 12:20:05;;;;;;;7.88;1.27;;;;;;;;;;5007013;28;20030;-76
2021/09/22 12:22:31;;;;;;;9.70;0.90;;;;;;;;;;5018731;28;20022;-76
2021/09/22 12:24:57;;;;;;;8.13;1.40;;;;;;;;;;5005825;28;20467;-75
2021/09/22 12:27:24;;;;;;;7.65;0.85;;;;;;;;;;4992714;28;20017;-76
2021/09/22 12:29:50;;;;;;;9.32;1.77;;;;;;;;;;5010489;28;20057;-76
2021/09/22 12:32:15;;;;;;;9.43;1.75;;;;;;;;;;4992590;28;20029;-75
2021/09/22 12:34:43;;;;;;;9.75;1.50;;;;;;;;;;4981877;28;20441;-74
2021/09/22 12:37:14;;;;;;;7.68;1.35;;;;;;;;;;4989987;28;21401;-74
2021/09/22 12:39:49;;;;;;;10.13;1.40;;;;;;;;;;5006184;28;20021;-74
2021/09/22 12:42:14;;;;;;;8.90;2.05;;;;;;;;;;4992107;28;20437;-74
2021/09/22 12:44:56;;;;;;;8.73;1.65;;;;;;;;;;5011177;28;20104;-75
2021/09/22 12:47:22;;;;;;;9.50;1.77;;;;;;;;;;5009210;28;20407;-75
2021/09/22 12:50:07;;;;;;;8.05;1.80;;;;;;;;;;5017648;28;20104;-75
2021/09/22 12:52:32;;;;;;;7.45;1.90;;;;;;;;;;4987157;28;20128;-74
2021/09/22 12:54:58;;;;;;;10.07;1.70;;;;;;;;;;5008484;28;20130;-74
2021/09/22 12:57:23;;;;;;;9.52;2.45;;;;;;;;;;5010759;28;20021;-74
2021/09/22 12:59:48;;;;;;;12.60;2.03;;;;;;;;;;4993110;28;20091;-75
2021/09/22 13:02:23;;;;;;;8.37;2.20;;;;;;;;;;4996893;28;20280;-75
2021/09/22 13:04:49;;;;;;;8.30;2.10;;;;;;;;;;4997085;28;20311;-75
2021/09/22 13:07:20;;;;;;;9.35;2.13;;;;;;;;;;4996587;28;20033;-74
2021/09/22 13:09:45;;;;;;;10.13;1.83;;;;;;;;;;5014820;28;20022;-75
2021/09/22 13:12:25;;;;;;;9.77;2.37;;;;;;;;;;5010335;28;20017;-74
2021/09/22 13:14:51;;;;;;;11.85;1.65;;;;;;;;;;5018682;28;20330;-75
2021/09/22 13:17:16;;;;;;;10.35;1.88;;;;;;;;;;5014963;28;20027;-74
2021/09/22 13:19:41;;;;;;;12.80;2.43;;;;;;;;;;5031502;28;20111;-74
2021/09/22 13:22:08;;;;;;;12.15;1.70;;;;;;;;;;5013920;28;20762;-75
2021/09/22 13:24:34;;;;;;;16.88;2.30;;;;;;;;;;4981918;28;20081;-76
2021/09/22 13:27:00;;;;;;;9.77;2.05;;;;;;;;;;4996909;28;20037;-75
2021/09/22 13:29:25;;;;;;;11.77;1.70;;;;;;;;;;4996335;28;20392;-75
2021/09/22 13:31:52;;;;;;;6.10;1.27;;;;;;;;;;5013610;28;20026;-73
2021/09/22 13:34:18;;;;;;;8.23;2.03;;;;;;;;;;5013946;28;20061;-73
2021/09/22 13:36:44;;;;;;;8.82;1.20;;;;;;;;;;5013639;28;20064;-73
2021/09/22 13:39:10;;;;;;;8.95;1.73;;;;;;;;;;4996093;28;20380;-74
2021/09/22 13:41:36;;;;;;;10.77;2.08;;;;;;;;;;4996379;28;20022;-73
2021/09/22 13:44:04;;;;;;;10.07;1.67;;;;;;;;;;5013336;28;20080;-73
2021/09/22 13:46:30;;;;;;;10.43;1.95;;;;;;;;;;4976957;28;20125;-73
2021/09/22 13:48:55;;;;;;;10.73;2.03;;;;;;;;;;5002434;28;20053;-73
2021/09/22 13:51:20;;;;;;;7.18;1.25;;;;;;;;;;5012930;28;20406;-73
2021/09/22 13:53:46;;;;;;;10.07;1.50;;;;;;;;;;5020310;28;20380;-73
2021/09/22 13:56:12;;;;;;;7.85;1.75;;;;;;;;;;5022277;28;20062;-73
2021/09/22 13:58:37;;;;;;;11.88;1.70;;;;;;;;;;5013845;28;20057;-73
2021/09/22 14:01:03;;;;;;;11.75;2.45;;;;;;;;;;5012762;28;20046;-73
2021/09/22 14:03:29;;;;;;;11.00;1.75;;;;;;;;;;5013150;28;20056;-73
2021/09/22 14:05:54;;;;;;;9.75;1.40;;;;;;;;;;4995614;28;20029;-73
2021/09/22 14:08:21;;;;;;;11.60;1.58;;;;;;;;;;5012863;28;20026;-73
2021/09/22 14:10:46;;;;;;;10.65;1.85;;;;;;;;;;5012642;28;20026;-74
2021/09/22 14:13:12;;;;;;;11.25;2.08;;;;;;;;;;5011439;28;20489;-74
2021/09/22 14:15:39;;;;;;;8.23;1.45;;;;;;;;;;5011100;28;20029;-74
2021/09/22 14:18:05;;;;;;;10.18;2.05;;;;;;;;;;5016257;28;20097;-74
2021/09/22 14:20:31;;;;;;;14.18;1.80;;;;;;;;;;5012200;28;20029;-73
2021/09/22 14:22:56;;;;;;;9.23;1.60;;;;;;;;;;5010635;28;20188;-74
2021/09/22 14:25:22;;;;;;;11.68;1.48;;;;;;;;;;4993557;28;20029;-74
2021/09/22 14:27:48;;;;;;;11.18;2.25;;;;;;;;;;5003516;28;20022;-73
2021/09/22 14:30:14;;;;;;;10.32;1.27;;;;;;;;;;5012921;28;20022;-73
2021/09/22 14:32:39;;;;;;;10.15;1.20;;;;;;;;;;5012777;28;20047;-73